Time;durP1;ratioP1;P1;durP2;ratioP2;P2;SDS_P1;SDS_P2;PMS_P1;PMS_P2;Temp;Humidity;BMP_temperature;BMP_pressure;BME280_temperature;BME280_humidity;BME280_pressure;Samples;Min_cycle;Max_cycle;Signal;HPM_P1;HPM_P2
2022/05/08 00:02:13;;;;;;;;;;;;;;;;;;2206043;67;1235;-72
2022/05/08 00:04:50;;;;;;;;;;;;;;;;;;2206394;59;1662;-72
2022/05/08 00:07:26;;;;;;;;;;;;;;;;;;2205127;59;1296;-72
2022/05/08 00:09:59;;;;;;;;;;;;;;;;;;2206046;59;1097;-72
2022/05/08 00:12:32;;;;;;;;;;;;;;;;;;2205668;59;1325;-72
2022/05/08 00:15:06;;;;;;;;;;;;;;;;;;2205960;59;1693;-75
2022/05/08 00:17:39;;;;;;;;;;;;;;;;;;2204698;60;1151;-72
2022/05/08 00:20:12;;;;;;;;;;;;;;;;;;2205415;59;1928;-72
2022/05/08 00:22:48;;;;;;;;;;;;;;;;;;2206081;67;1092;-73
2022/05/08 00:25:22;;;;;;;;;;;;;;;;;;2205705;59;1298;-72
2022/05/08 00:27:55;;;;;;;;;;;;;;;;;;2206006;59;1503;-71
2022/05/08 00:30:28;;;;;;;;;;;;;;;;;;2206939;67;1229;-72
2022/05/08 00:33:01;;;;;;;;;;;;;;;;;;2206204;59;1589;-72
2022/05/08 00:35:35;;;;;;;;;;;;;;;;;;2207082;59;1309;-72
2022/05/08 00:38:11;;;;;;;;;;;;;;;;;;2205917;59;1635;-71
2022/05/08 00:40:44;;;;;;;;;;;;;;;;;;2207395;67;1933;-72
2022/05/08 00:43:28;;;;;;;;;;;;;;;;;;2206935;59;1089;-71
2022/05/08 00:46:05;;;;;;;;;;;;;;;;;;2206880;67;1218;-72
2022/05/08 00:48:39;;;;;;;;;;;;;;;;;;2207750;59;1573;-72
2022/05/08 00:51:12;;;;;;;;;;;;;;;;;;2206337;59;1178;-72
2022/05/08 00:53:49;;;;;;;;;;;;;;;;;;2206914;67;1242;-72
2022/05/08 00:56:23;;;;;;;;;;;;;;;;;;2207617;59;1204;-72
2022/05/08 00:58:56;;;;;;;;;;;;;;;;;;2206155;59;1739;-72
2022/05/08 01:01:29;;;;;;;;;;;;;;;;;;2204269;60;1936;-71
2022/05/08 01:04:02;;;;;;;;;;;;;;;;;;2206808;67;1252;-71
2022/05/08 01:06:35;;;;;;;;;;;;;;;;;;2206076;59;1218;-72
2022/05/08 01:09:11;;;;;;;;;;;;;;;;;;2206596;67;1200;-71
2022/05/08 01:11:44;;;;;;;;;;;;;;;;;;2207310;59;1362;-72
2022/05/08 01:14:17;;;;;;;;;;;;;;;;;;2207516;59;1431;-72
2022/05/08 01:16:50;;;;;;;;;;;;;;;;;;2207128;59;1154;-72
2022/05/08 01:19:24;;;;;;;;;;;;;;;;;;2207369;67;1082;-72
2022/05/08 01:21:59;;;;;;;;;;;;;;;;;;2206503;59;1924;-71
2022/05/08 01:24:32;;;;;;;;;;;;;;;;;;2207289;59;1287;-72
2022/05/08 01:27:06;;;;;;;;;;;;;;;;;;2206835;59;1661;-71
2022/05/08 01:29:39;;;;;;;;;;;;;;;;;;2206738;67;1307;-72
2022/05/08 01:32:12;;;;;;;;;;;;;;;;;;2206520;67;1194;-72
2022/05/08 01:34:45;;;;;;;;;;;;;;;;;;2206980;59;1243;-72
2022/05/08 01:37:21;;;;;;;;;;;;;;;;;;2206576;59;1300;-72
2022/05/08 01:39:54;;;;;;;;;;;;;;;;;;2205416;59;1214;-72
2022/05/08 01:42:28;;;;;;;;;;;;;;;;;;2206517;67;2004;-72
2022/05/08 01:45:02;;;;;;;;;;;;;;;;;;2206509;59;1751;-72
2022/05/08 01:50:26;;;;;;;;;;;;;;;;;;2206715;67;1093;-72
2022/05/08 01:53:02;;;;;;;;;;;;;;;;;;2206701;59;1215;-72
2022/05/08 01:55:35;;;;;;;;;;;;;;;;;;2206400;59;1641;-72
2022/05/08 01:58:08;;;;;;;;;;;;;;;;;;2206460;59;1624;-72
2022/05/08 02:00:41;;;;;;;;;;;;;;;;;;2207131;67;1934;-72
2022/05/08 02:03:15;;;;;;;;;;;;;;;;;;2206289;67;1235;-72
2022/05/08 02:05:48;;;;;;;;;;;;;;;;;;2206504;67;1215;-71
2022/05/08 02:08:24;;;;;;;;;;;;;;;;;;2206509;59;1309;-71
2022/05/08 02:10:57;;;;;;;;;;;;;;;;;;2206805;59;1355;-72
2022/05/08 02:13:30;;;;;;;;;;;;;;;;;;2207248;67;1123;-72
2022/05/08 02:16:03;;;;;;;;;;;;;;;;;;2206551;59;1372;-75
2022/05/08 02:18:36;;;;;;;;;;;;;;;;;;2207215;67;1116;-71
2022/05/08 02:21:09;;;;;;;;;;;;;;;;;;2206207;59;1918;-71
2022/05/08 02:23:45;;;;;;;;;;;;;;;;;;2207408;59;1268;-71
2022/05/08 02:26:18;;;;;;;;;;;;;;;;;;2206425;59;1606;-71
2022/05/08 02:28:52;;;;;;;;;;;;;;;;;;2205068;59;1050;-71
2022/05/08 02:31:25;;;;;;;;;;;;;;;;;;2207337;67;1257;-71
2022/05/08 02:33:58;;;;;;;;;;;;;;;;;;2206419;67;1287;-71
2022/05/08 02:36:31;;;;;;;;;;;;;;;;;;2206804;67;1207;-71
2022/05/08 02:39:07;;;;;;;;;;;;;;;;;;2205003;59;1221;-71
2022/05/08 02:41:40;;;;;;;;;;;;;;;;;;2206405;59;1924;-71
2022/05/08 02:44:14;;;;;;;;;;;;;;;;;;2206189;59;1189;-71
2022/05/08 02:46:47;;;;;;;;;;;;;;;;;;2206364;59;1292;-71
2022/05/08 02:49:20;;;;;;;;;;;;;;;;;;2206050;59;1327;-71
2022/05/08 02:51:53;;;;;;;;;;;;;;;;;;2205869;59;1189;-71
2022/05/08 02:54:29;;;;;;;;;;;;;;;;;;2205989;67;1187;-71
2022/05/08 02:59:51;;;;;;;;;;;;;;;;;;2205819;59;1863;-71
2022/05/08 03:02:24;;;;;;;;;;;;;;;;;;2205713;67;1996;-71
2022/05/08 03:04:57;;;;;;;;;;;;;;;;;;2206454;67;1189;-71
2022/05/08 03:07:31;;;;;;;;;;;;;;;;;;2205668;59;1403;-70
2022/05/08 03:10:10;;;;;;;;;;;;;;;;;;2205187;59;1140;-71
2022/05/08 03:12:43;;;;;;;;;;;;;;;;;;2206426;59;1424;-71
2022/05/08 03:15:17;;;;;;;;;;;;;;;;;;2205477;59;1423;-71
2022/05/08 03:17:50;;;;;;;;;;;;;;;;;;2205509;59;1400;-71
2022/05/08 03:20:23;;;;;;;;;;;;;;;;;;2206257;67;1637;-73
2022/05/08 03:22:56;;;;;;;;;;;;;;;;;;2206875;67;1960;-71
2022/05/08 03:25:32;;;;;;;;;;;;;;;;;;2206658;67;1265;-72
2022/05/08 03:28:05;;;;;;;;;;;;;;;;;;2205630;67;1218;-71
2022/05/08 03:30:39;;;;;;;;;;;;;;;;;;2206222;67;1265;-71
2022/05/08 03:33:12;;;;;;;;;;;;;;;;;;2205963;59;1254;-71
2022/05/08 03:35:45;;;;;;;;;;;;;;;;;;2205614;67;1301;-71
2022/05/08 03:38:18;;;;;;;;;;;;;;;;;;2205631;59;1371;-71
2022/05/08 03:40:54;;;;;;;;;;;;;;;;;;2206042;67;1938;-71
2022/05/08 03:43:28;;;;;;;;;;;;;;;;;;2205399;59;1585;-71
2022/05/08 03:46:01;;;;;;;;;;;;;;;;;;2206686;67;1261;-72
2022/05/08 03:48:34;;;;;;;;;;;;;;;;;;2206774;59;1609;-72
2022/05/08 03:51:08;;;;;;;;;;;;;;;;;;2205818;59;1306;-72
2022/05/08 03:53:41;;;;;;;;;;;;;;;;;;2203096;67;1640;-71
2022/05/08 03:56:17;;;;;;;;;;;;;;;;;;2206348;67;1132;-71
2022/05/08 03:58:50;;;;;;;;;;;;;;;;;;2206891;59;1626;-71
2022/05/08 04:01:23;;;;;;;;;;;;;;;;;;2206739;59;1928;-72
2022/05/08 04:03:56;;;;;;;;;;;;;;;;;;2206011;67;1140;-72
2022/05/08 04:06:30;;;;;;;;;;;;;;;;;;2205965;59;1450;-72
2022/05/08 04:09:03;;;;;;;;;;;;;;;;;;2205986;59;1181;-72
2022/05/08 04:11:39;;;;;;;;;;;;;;;;;;2206704;59;1277;-71
2022/05/08 04:14:12;;;;;;;;;;;;;;;;;;2205979;59;1385;-72
2022/05/08 04:16:45;;;;;;;;;;;;;;;;;;2206167;59;1609;-71
2022/05/08 04:19:18;;;;;;;;;;;;;;;;;;2205514;67;1113;-71
2022/05/08 04:24:16;;;;;;;;;;;;;;;;;;2205797;59;1936;-72
2022/05/08 04:24:42;;;;;;;;;;;;;;;;;;2206746;59;1651;-71
2022/05/08 04:27:18;;;;;;;;;;;;;;;;;;2205474;59;1740;-72
2022/05/08 04:29:51;;;;;;;;;;;;;;;;;;2205171;67;1290;-71
2022/05/08 04:32:25;;;;;;;;;;;;;;;;;;2206776;67;1183;-71
2022/05/08 04:34:58;;;;;;;;;;;;;;;;;;2206842;67;1283;-71
2022/05/08 04:37:31;;;;;;;;;;;;;;;;;;2206571;59;1379;-72
2022/05/08 04:40:06;;;;;;;;;;;;;;;;;;2206966;59;1254;-71
2022/05/08 04:42:42;;;;;;;;;;;;;;;;;;2207088;67;1987;-71
2022/05/08 04:45:15;;;;;;;;;;;;;;;;;;2206935;67;1233;-71
2022/05/08 04:47:48;;;;;;;;;;;;;;;;;;2207312;59;1355;-71
2022/05/08 04:50:21;;;;;;;;;;;;;;;;;;2206964;67;1184;-72
2022/05/08 04:52:54;;;;;;;;;;;;;;;;;;2207236;59;1223;-71
2022/05/08 04:55:27;;;;;;;;;;;;;;;;;;2207158;67;1274;-71
2022/05/08 04:58:03;;;;;;;;;;;;;;;;;;2207049;59;1716;-71
2022/05/08 05:00:36;;;;;;;;;;;;;;;;;;2207325;67;1253;-71
2022/05/08 05:03:10;;;;;;;;;;;;;;;;;;2206819;67;1936;-72
2022/05/08 05:05:43;;;;;;;;;;;;;;;;;;2207275;59;1258;-71
2022/05/08 05:08:18;;;;;;;;;;;;;;;;;;2206198;59;1624;-71
2022/05/08 05:10:51;;;;;;;;;;;;;;;;;;2206462;59;1203;-71
2022/05/08 05:13:27;;;;;;;;;;;;;;;;;;2206892;67;1067;-71
2022/05/08 05:16:00;;;;;;;;;;;;;;;;;;2207464;59;1310;-71
2022/05/08 05:18:33;;;;;;;;;;;;;;;;;;2207812;67;1221;-71
2022/05/08 05:21:07;;;;;;;;;;;;;;;;;;2207160;59;1639;-71
2022/05/08 05:23:40;;;;;;;;;;;;;;;;;;2206836;59;1941;-72
2022/05/08 05:26:13;;;;;;;;;;;;;;;;;;2206884;67;1244;-71
2022/05/08 05:28:49;;;;;;;;;;;;;;;;;;2207336;67;1085;-71
2022/05/08 05:31:22;;;;;;;;;;;;;;;;;;2207027;60;1179;-71
2022/05/08 05:33:55;;;;;;;;;;;;;;;;;;2206721;59;1601;-71
2022/05/08 05:36:28;;;;;;;;;;;;;;;;;;2206772;59;1267;-71
2022/05/08 05:39:01;;;;;;;;;;;;;;;;;;2207385;59;1217;-71
2022/05/08 05:41:35;;;;;;;;;;;;;;;;;;2206106;59;1965;-72
2022/05/08 05:44:11;;;;;;;;;;;;;;;;;;2207461;67;1234;-71
2022/05/08 05:49:33;;;;;;;;;;;;;;;;;;2207463;59;1606;-71
2022/05/08 05:52:07;;;;;;;;;;;;;;;;;;2207598;59;1118;-71
2022/05/08 05:54:41;;;;;;;;;;;;;;;;;;2207203;67;1304;-71
2022/05/08 05:57:14;;;;;;;;;;;;;;;;;;2207387;67;1119;-71
2022/05/08 05:59:49;;;;;;;;;;;;;;;;;;2207119;59;2348;-71
2022/05/08 06:02:23;;;;;;;;;;;;;;;;;;2205971;67;1978;-71
2022/05/08 06:04:56;;;;;;;;;;;;;;;;;;2206582;67;1207;-71
2022/05/08 06:07:29;;;;;;;;;;;;;;;;;;2206814;59;1288;-71
2022/05/08 06:10:03;;;;;;;;;;;;;;;;;;2206559;67;1112;-71
2022/05/08 06:12:36;;;;;;;;;;;;;;;;;;2207523;59;1216;-72
2022/05/08 06:15:13;;;;;;;;;;;;;;;;;;2206583;59;1355;-71
2022/05/08 06:17:46;;;;;;;;;;;;;;;;;;2206809;59;1138;-71
2022/05/08 06:20:19;;;;;;;;;;;;;;;;;;2206808;59;1672;-71
2022/05/08 06:22:54;;;;;;;;;;;;;;;;;;2207371;67;1984;-71
2022/05/08 06:25:27;;;;;;;;;;;;;;;;;;2206836;59;1288;-72
2022/05/08 06:28:00;;;;;;;;;;;;;;;;;;2206502;67;1258;-71
2022/05/08 06:30:36;;;;;;;;;;;;;;;;;;2207562;67;1190;-71
2022/05/08 06:33:09;;;;;;;;;;;;;;;;;;2206089;59;1708;-72
2022/05/08 06:35:42;;;;;;;;;;;;;;;;;;2207216;59;1256;-71
2022/05/08 06:38:16;;;;;;;;;;;;;;;;;;2205493;59;1647;-71
2022/05/08 06:40:49;;;;;;;;;;;;;;;;;;2206302;59;1365;-71
2022/05/08 06:43:23;;;;;;;;;;;;;;;;;;2206555;59;2077;-71
2022/05/08 06:45:59;;;;;;;;;;;;;;;;;;2207766;67;1277;-71
2022/05/08 06:48:32;;;;;;;;;;;;;;;;;;2206086;59;1610;-72
2022/05/08 06:51:06;;;;;;;;;;;;;;;;;;2205784;59;1586;-71
2022/05/08 06:53:39;;;;;;;;;;;;;;;;;;2206248;67;1193;-71
2022/05/08 06:56:13;;;;;;;;;;;;;;;;;;2206749;67;1204;-71
2022/05/08 07:01:38;;;;;;;;;;;;;;;;;;2204847;59;1577;-73
2022/05/08 07:04:12;;;;;;;;;;;;;;;;;;2205956;59;1939;-71
2022/05/08 07:06:45;;;;;;;;;;;;;;;;;;2209452;67;1126;-74
2022/05/08 07:09:18;;;;;;;;;;;;;;;;;;2207155;67;1237;-71
2022/05/08 07:11:51;;;;;;;;;;;;;;;;;;2207029;59;1346;-72
2022/05/08 07:14:24;;;;;;;;;;;;;;;;;;2205990;59;1661;-71
2022/05/08 07:17:00;;;;;;;;;;;;;;;;;;2206749;59;1392;-71
2022/05/08 07:19:33;;;;;;;;;;;;;;;;;;2207151;67;1144;-71
2022/05/08 07:22:07;;;;;;;;;;;;;;;;;;2206412;59;1929;-72
2022/05/08 07:24:41;;;;;;;;;;;;;;;;;;2207630;67;1167;-71
2022/05/08 07:27:14;;;;;;;;;;;;;;;;;;2206830;67;1168;-71
2022/05/08 07:29:47;;;;;;;;;;;;;;;;;;2206979;67;1288;-71
2022/05/08 07:32:24;;;;;;;;;;;;;;;;;;2206480;59;1592;-72
2022/05/08 07:37:46;;;;;;;;;;;;;;;;;;2206764;59;1225;-71
2022/05/08 07:40:19;;;;;;;;;;;;;;;;;;2206984;59;1398;-71
2022/05/08 07:42:53;;;;;;;;;;;;;;;;;;2207025;59;2019;-71
2022/05/08 07:45:26;;;;;;;;;;;;;;;;;;2205994;59;1767;-72
2022/05/08 07:48:02;;;;;;;;;;;;;;;;;;2207134;59;1267;-71
2022/05/08 07:50:35;;;;;;;;;;;;;;;;;;2204224;59;1419;-72
2022/05/08 07:53:08;;;;;;;;;;;;;;;;;;2205852;59;1749;-72
2022/05/08 07:55:42;;;;;;;;;;;;;;;;;;2207023;67;1202;-71
2022/05/08 07:58:15;;;;;;;;;;;;;;;;;;2206335;59;1653;-72
2022/05/08 08:00:49;;;;;;;;;;;;;;;;;;2207054;59;1838;-72
2022/05/08 08:03:25;;;;;;;;;;;;;;;;;;2203707;67;1936;-71
2022/05/08 08:05:59;;;;;;;;;;;;;;;;;;2205737;59;1681;-71
2022/05/08 08:08:32;;;;;;;;;;;;;;;;;;2206668;59;1301;-71
2022/05/08 08:11:06;;;;;;;;;;;;;;;;;;2206483;59;1665;-71
2022/05/08 08:13:40;;;;;;;;;;;;;;;;;;2207197;67;1158;-72
2022/05/08 08:16:13;;;;;;;;;;;;;;;;;;2207181;59;1577;-71
2022/05/08 08:18:49;;;;;;;;;;;;;;;;;;2206232;59;1433;-71
2022/05/08 08:21:23;;;;;;;;;;;;;;;;;;2206937;59;1583;-71
2022/05/08 08:23:56;;;;;;;;;;;;;;;;;;2206977;59;1941;-71
2022/05/08 08:26:30;;;;;;;;;;;;;;;;;;2206713;59;1487;-71
2022/05/08 08:29:03;;;;;;;;;;;;;;;;;;2206905;67;1105;-73
2022/05/08 08:31:36;;;;;;;;;;;;;;;;;;2207090;67;1201;-72
2022/05/08 08:34:12;;;;;;;;;;;;;;;;;;2205929;59;1292;-71
2022/05/08 08:36:45;;;;;;;;;;;;;;;;;;2207310;67;1287;-72
2022/05/08 08:39:18;;;;;;;;;;;;;;;;;;2206062;59;1194;-71
2022/05/08 08:41:54;;;;;;;;;;;;;;;;;;2206018;59;1234;-71
2022/05/08 08:50:10;;;;;;;;;;;;;;;;;;2206456;59;1638;-71
2022/05/08 08:52:44;;;;;;;;;;;;;;;;;;2207086;67;1323;-71
2022/05/08 08:55:18;;;;;;;;;;;;;;;;;;2204258;67;1262;-73
2022/05/08 08:57:51;;;;;;;;;;;;;;;;;;2206880;59;1540;-71
2022/05/08 09:00:24;;;;;;;;;;;;;;;;;;2207757;59;1785;-71
2022/05/08 09:02:58;;;;;;;;;;;;;;;;;;2207731;59;1988;-71
2022/05/08 09:05:35;;;;;;;;;;;;;;;;;;2206976;59;1168;-71
2022/05/08 09:08:08;;;;;;;;;;;;;;;;;;2206119;59;1852;-71
2022/05/08 09:10:44;;;;;;;;;;;;;;;;;;2206622;59;1672;-71
2022/05/08 09:13:18;;;;;;;;;;;;;;;;;;2207589;59;1637;-71
2022/05/08 09:15:53;;;;;;;;;;;;;;;;;;2207061;59;1953;-71
2022/05/08 09:18:26;;;;;;;;;;;;;;;;;;2207788;59;1212;-71
2022/05/08 09:21:54;;;;;;;;;;;;;;;;;;2207502;67;1492;-71
2022/05/08 09:24:08;;;;;;;;;;;;;;;;;;2206708;59;1934;-71
2022/05/08 09:26:41;;;;;;;;;;;;;;;;;;2206697;59;1707;-71
2022/05/08 09:29:22;;;;;;;;;;;;;;;;;;2205859;59;1878;-71
2022/05/08 09:31:56;;;;;;;;;;;;;;;;;;2205027;59;1319;-71
2022/05/08 09:34:29;;;;;;;;;;;;;;;;;;2206296;59;1285;-71
2022/05/08 09:37:11;;;;;;;;;;;;;;;;;;2203768;59;1456;-72
2022/05/08 09:39:44;;;;;;;;;;;;;;;;;;2204241;59;1606;-71
2022/05/08 09:42:32;;;;;;;;;;;;;;;;;;2205818;67;1061;-71
2022/05/08 09:45:07;;;;;;;;;;;;;;;;;;2205482;59;1931;-72
2022/05/08 09:47:44;;;;;;;;;;;;;;;;;;2205655;59;1344;-71
2022/05/08 09:50:18;;;;;;;;;;;;;;;;;;2206710;67;1102;-71
2022/05/08 09:52:55;;;;;;;;;;;;;;;;;;2205220;59;1635;-71
2022/05/08 09:55:29;;;;;;;;;;;;;;;;;;2202852;59;1566;-72
2022/05/08 09:58:02;;;;;;;;;;;;;;;;;;2205995;59;1819;-71
2022/05/08 10:00:35;;;;;;;;;;;;;;;;;;2206665;67;1240;-71
2022/05/08 10:03:09;;;;;;;;;;;;;;;;;;2205909;59;2665;-71
2022/05/08 10:05:43;;;;;;;;;;;;;;;;;;2206247;59;2644;-72
2022/05/08 10:08:19;;;;;;;;;;;;;;;;;;2207301;67;1233;-72
2022/05/08 10:16:50;;;;;;;;;;;;;;;;;;2207053;59;2322;-75
2022/05/08 10:20:00;;;;;;;;;;;;;;;;;;2207944;59;2131;-73
2022/05/08 10:22:48;;;;;;;;;;;;;;;;;;2210381;59;2256;-74
2022/05/08 10:25:24;;;;;;;;;;;;;;;;;;2206788;59;2407;-72
2022/05/08 10:28:06;;;;;;;;;;;;;;;;;;2206420;59;2274;-75
2022/05/08 10:30:40;;;;;;;;;;;;;;;;;;2206841;59;2177;-73
2022/05/08 10:33:13;;;;;;;;;;;;;;;;;;2206362;59;2419;-73
2022/05/08 10:36:06;;;;;;;;;;;;;;;;;;2206606;59;2521;-74
2022/05/08 10:38:39;;;;;;;;;;;;;;;;;;2206748;59;2164;-74
2022/05/08 10:41:27;;;;;;;;;;;;;;;;;;2206977;59;1441;-74
2022/05/08 10:44:34;;;;;;;;;;;;;;;;;;2206988;59;2361;-74
2022/05/08 10:47:26;;;;;;;;;;;;;;;;;;2206954;59;2302;-73
2022/05/08 10:49:59;;;;;;;;;;;;;;;;;;2207889;59;2423;-74
2022/05/08 10:52:32;;;;;;;;;;;;;;;;;;2207833;59;2653;-74
2022/05/08 10:55:08;;;;;;;;;;;;;;;;;;2206189;59;1441;-74
2022/05/08 10:57:41;;;;;;;;;;;;;;;;;;2207591;59;1869;-74
2022/05/08 11:00:19;;;;;;;;;;;;;;;;;;2207564;59;2341;-75
2022/05/08 11:02:54;;;;;;;;;;;;;;;;;;2204006;67;1489;-74
2022/05/08 11:05:29;;;;;;;;;;;;;;;;;;2205751;59;2241;-74
2022/05/08 11:08:03;;;;;;;;;;;;;;;;;;2204219;59;2418;-73
2022/05/08 11:10:37;;;;;;;;;;;;;;;;;;2205936;59;2226;-75
2022/05/08 11:13:11;;;;;;;;;;;;;;;;;;2206478;59;1182;-74
2022/05/08 11:15:51;;;;;;;;;;;;;;;;;;2206676;59;1323;-75
2022/05/08 11:18:25;;;;;;;;;;;;;;;;;;2206653;59;1287;-74
2022/05/08 11:20:59;;;;;;;;;;;;;;;;;;2206879;59;1512;-74
2022/05/08 11:23:33;;;;;;;;;;;;;;;;;;2205729;67;1941;-73
2022/05/08 11:26:09;;;;;;;;;;;;;;;;;;2206634;59;1269;-74
2022/05/08 11:28:49;;;;;;;;;;;;;;;;;;2207375;59;1244;-74
2022/05/08 11:31:27;;;;;;;;;;;;;;;;;;2206343;59;1237;-73
2022/05/08 11:36:49;;;;;;;;;;;;;;;;;;2201650;67;1230;-74
2022/05/08 11:39:23;;;;;;;;;;;;;;;;;;2206913;59;1327;-74
2022/05/08 11:41:57;;;;;;;;;;;;;;;;;;2207374;59;1306;-74
2022/05/08 11:44:32;;;;;;;;;;;;;;;;;;2206496;59;1995;-73
2022/05/08 11:47:12;;;;;;;;;;;;;;;;;;2206690;59;1404;-73
2022/05/08 11:49:45;;;;;;;;;;;;;;;;;;2207684;67;1098;-73
2022/05/08 11:52:23;;;;;;;;;;;;;;;;;;2206411;59;2360;-74
2022/05/08 11:55:02;;;;;;;;;;;;;;;;;;2206531;59;1306;-73
2022/05/08 11:57:43;;;;;;;;;;;;;;;;;;2202821;59;1843;-73
2022/05/08 12:00:16;;;;;;;;;;;;;;;;;;2205743;59;2059;-73
2022/05/08 12:02:53;;;;;;;;;;;;;;;;;;2203097;67;1418;-74
2022/05/08 12:05:27;;;;;;;;;;;;;;;;;;2206660;59;2587;-73
2022/05/08 12:08:00;;;;;;;;;;;;;;;;;;2205559;59;2389;-73
2022/05/08 12:10:43;;;;;;;;;;;;;;;;;;2205816;59;2052;-74
2022/05/08 12:13:16;;;;;;;;;;;;;;;;;;2206651;59;1331;-75
2022/05/08 12:15:50;;;;;;;;;;;;;;;;;;2206432;59;1889;-74
2022/05/08 12:18:26;;;;;;;;;;;;;;;;;;2206229;59;1814;-74
2022/05/08 12:20:59;;;;;;;;;;;;;;;;;;2206751;59;1464;-73
2022/05/08 12:23:32;;;;;;;;;;;;;;;;;;2205653;59;2045;-74
2022/05/08 12:26:06;;;;;;;;;;;;;;;;;;2207104;59;1150;-73
2022/05/08 12:28:45;;;;;;;;;;;;;;;;;;2207654;67;1098;-74
2022/05/08 12:31:18;;;;;;;;;;;;;;;;;;2203562;67;2079;-74
2022/05/08 12:33:54;;;;;;;;;;;;;;;;;;2207129;59;1278;-74
2022/05/08 12:36:27;;;;;;;;;;;;;;;;;;2206841;59;1263;-73
2022/05/08 12:39:00;;;;;;;;;;;;;;;;;;2206720;59;1635;-74
2022/05/08 12:41:33;;;;;;;;;;;;;;;;;;2206541;67;1251;-74
2022/05/08 12:44:07;;;;;;;;;;;;;;;;;;2202851;67;1932;-74
2022/05/08 12:46:40;;;;;;;;;;;;;;;;;;2207970;67;1434;-74
2022/05/08 12:49:16;;;;;;;;;;;;;;;;;;2206897;59;1461;-74
2022/05/08 12:51:49;;;;;;;;;;;;;;;;;;2207431;59;1535;-75
2022/05/08 12:54:22;;;;;;;;;;;;;;;;;;2206092;67;1238;-75
2022/05/08 12:56:56;;;;;;;;;;;;;;;;;;2207409;67;1153;-74
2022/05/08 12:59:47;;;;;;;;;;;;;;;;;;2206409;59;1806;-74
2022/05/08 13:02:21;;;;;;;;;;;;;;;;;;2206854;67;1181;-74
2022/05/08 13:04:56;;;;;;;;;;;;;;;;;;2206682;59;1986;-75
2022/05/08 13:07:30;;;;;;;;;;;;;;;;;;2206078;59;2581;-74
2022/05/08 13:10:03;;;;;;;;;;;;;;;;;;2205450;67;2329;-74
2022/05/08 13:12:36;;;;;;;;;;;;;;;;;;2205796;59;1387;-74
2022/05/08 13:15:10;;;;;;;;;;;;;;;;;;2206356;59;1327;-75
2022/05/08 13:17:43;;;;;;;;;;;;;;;;;;2206443;59;1701;-74
2022/05/08 13:20:19;;;;;;;;;;;;;;;;;;2206681;59;1582;-75
2022/05/08 13:22:52;;;;;;;;;;;;;;;;;;2206859;60;1161;-75
2022/05/08 13:25:25;;;;;;;;;;;;;;;;;;2206848;59;1981;-75
2022/05/08 13:27:58;;;;;;;;;;;;;;;;;;2207608;59;1132;-74
2022/05/08 13:30:32;;;;;;;;;;;;;;;;;;2207688;67;1122;-74
2022/05/08 13:33:05;;;;;;;;;;;;;;;;;;2204655;67;1222;-75
2022/05/08 13:35:41;;;;;;;;;;;;;;;;;;2207385;67;1287;-74
2022/05/08 13:38:14;;;;;;;;;;;;;;;;;;2203702;59;1483;-74
2022/05/08 13:40:48;;;;;;;;;;;;;;;;;;2206734;59;1749;-74
2022/05/08 13:43:21;;;;;;;;;;;;;;;;;;2207130;59;1665;-74
2022/05/08 13:45:55;;;;;;;;;;;;;;;;;;2206487;59;2158;-74
2022/05/08 13:48:28;;;;;;;;;;;;;;;;;;2207640;59;1272;-74
2022/05/08 13:51:04;;;;;;;;;;;;;;;;;;2207714;67;1202;-74
2022/05/08 13:53:38;;;;;;;;;;;;;;;;;;2205940;59;1104;-74
2022/05/08 13:56:11;;;;;;;;;;;;;;;;;;2207381;59;1207;-74
2022/05/08 13:58:44;;;;;;;;;;;;;;;;;;2207631;59;1592;-74
2022/05/08 14:01:19;;;;;;;;;;;;;;;;;;2207757;67;1255;-73
2022/05/08 14:04:03;;;;;;;;;;;;;;;;;;2207451;59;1073;-74
2022/05/08 14:06:40;;;;;;;;;;;;;;;;;;2207680;59;1917;-74
2022/05/08 14:09:15;;;;;;;;;;;;;;;;;;2205760;59;2533;-75
2022/05/08 14:11:48;;;;;;;;;;;;;;;;;;2206167;59;1302;-75
2022/05/08 14:14:25;;;;;;;;;;;;;;;;;;2207465;59;1356;-74
2022/05/08 14:16:59;;;;;;;;;;;;;;;;;;2207536;59;1770;-73
2022/05/08 14:19:32;;;;;;;;;;;;;;;;;;2206515;59;2036;-74
2022/05/08 14:22:08;;;;;;;;;;;;;;;;;;2206848;59;1850;-74
2022/05/08 14:24:41;;;;;;;;;;;;;;;;;;2206056;59;1937;-75
2022/05/08 14:27:14;;;;;;;;;;;;;;;;;;2206793;59;1686;-74
2022/05/08 14:29:52;;;;;;;;;;;;;;;;;;2207078;59;1245;-74
2022/05/08 14:38:06;;;;;;;;;;;;;;;;;;2206939;59;1578;-74
2022/05/08 14:40:39;;;;;;;;;;;;;;;;;;2206022;59;2121;-74
2022/05/08 14:43:13;;;;;;;;;;;;;;;;;;2203204;59;1937;-74
2022/05/08 14:45:46;;;;;;;;;;;;;;;;;;2206977;67;1930;-74
2022/05/08 14:48:20;;;;;;;;;;;;;;;;;;2207332;59;1354;-74
2022/05/08 14:50:53;;;;;;;;;;;;;;;;;;2207078;59;1787;-73
2022/05/08 14:53:29;;;;;;;;;;;;;;;;;;2206401;59;1221;-75
2022/05/08 14:56:02;;;;;;;;;;;;;;;;;;2206196;59;1193;-74
2022/05/08 14:58:35;;;;;;;;;;;;;;;;;;2205796;59;1514;-74
2022/05/08 15:01:10;;;;;;;;;;;;;;;;;;2207158;67;1207;-74
2022/05/08 15:03:47;;;;;;;;;;;;;;;;;;2206735;59;1246;-74
2022/05/08 15:06:20;;;;;;;;;;;;;;;;;;2207033;59;1990;-74
2022/05/08 15:08:59;;;;;;;;;;;;;;;;;;2203000;67;2484;-74
2022/05/08 15:11:32;;;;;;;;;;;;;;;;;;2205535;59;2771;-74
2022/05/08 15:14:05;;;;;;;;;;;;;;;;;;2204922;59;1679;-75
2022/05/08 15:16:40;;;;;;;;;;;;;;;;;;2207449;59;1226;-74
2022/05/08 15:19:14;;;;;;;;;;;;;;;;;;2206603;59;1042;-75
2022/05/08 15:21:47;;;;;;;;;;;;;;;;;;2207297;59;1581;-74
2022/05/08 15:24:23;;;;;;;;;;;;;;;;;;2206044;59;1208;-74
2022/05/08 15:26:56;;;;;;;;;;;;;;;;;;2207252;59;1936;-75
2022/05/08 15:29:29;;;;;;;;;;;;;;;;;;2206754;59;1701;-75
2022/05/08 15:32:02;;;;;;;;;;;;;;;;;;2205836;59;1679;-74
2022/05/08 15:34:35;;;;;;;;;;;;;;;;;;2206924;59;1871;-74
2022/05/08 15:37:08;;;;;;;;;;;;;;;;;;2207297;67;1187;-74
2022/05/08 15:39:44;;;;;;;;;;;;;;;;;;2206384;59;1720;-74
2022/05/08 15:42:17;;;;;;;;;;;;;;;;;;2206672;67;1254;-74
2022/05/08 15:44:52;;;;;;;;;;;;;;;;;;2206390;59;1938;-73
2022/05/08 15:47:26;;;;;;;;;;;;;;;;;;2206159;59;1543;-75
2022/05/08 15:49:59;;;;;;;;;;;;;;;;;;2207118;67;1175;-74
2022/05/08 15:52:32;;;;;;;;;;;;;;;;;;2207076;59;1262;-74
2022/05/08 15:55:09;;;;;;;;;;;;;;;;;;2206496;59;1234;-74
2022/05/08 15:57:42;;;;;;;;;;;;;;;;;;2203784;67;1774;-74
2022/05/08 16:00:17;;;;;;;;;;;;;;;;;;2206538;67;1166;-74
2022/05/08 16:02:51;;;;;;;;;;;;;;;;;;2207143;59;1220;-74
2022/05/08 16:05:24;;;;;;;;;;;;;;;;;;2205928;67;1912;-75
2022/05/08 16:07:59;;;;;;;;;;;;;;;;;;2207218;59;1468;-74
2022/05/08 16:10:35;;;;;;;;;;;;;;;;;;2205305;59;2326;-74
2022/05/08 16:24:13;;;;;;;;;;;;;;;;;;2205925;59;1668;-72
2022/05/08 16:26:49;;;;;;;;;;;;;;;;;;2210237;59;1935;-72
2022/05/08 16:29:22;;;;;;;;;;;;;;;;;;2210699;67;1182;-72
2022/05/08 16:31:55;;;;;;;;;;;;;;;;;;2210281;59;1769;-72
2022/05/08 16:34:28;;;;;;;;;;;;;;;;;;2210195;59;1197;-72
2022/05/08 16:37:01;;;;;;;;;;;;;;;;;;2210439;59;1205;-72
2022/05/08 16:39:34;;;;;;;;;;;;;;;;;;2210348;59;1511;-72
2022/05/08 16:42:11;;;;;;;;;;;;;;;;;;2209063;59;1873;-72
2022/05/08 16:44:44;;;;;;;;;;;;;;;;;;2209048;59;1822;-72
2022/05/08 16:47:17;;;;;;;;;;;;;;;;;;2208951;59;1928;-72
2022/05/08 16:49:50;;;;;;;;;;;;;;;;;;2210348;67;1216;-72
2022/05/08 16:52:24;;;;;;;;;;;;;;;;;;2211102;59;1180;-72
2022/05/08 16:54:57;;;;;;;;;;;;;;;;;;2209085;59;1142;-72
2022/05/08 16:57:33;;;;;;;;;;;;;;;;;;2209473;67;1804;-73
2022/05/08 17:00:07;;;;;;;;;;;;;;;;;;2209326;59;1168;-72
2022/05/08 17:02:40;;;;;;;;;;;;;;;;;;2210492;67;1124;-72
2022/05/08 17:05:14;;;;;;;;;;;;;;;;;;2210350;67;1931;-72
2022/05/08 17:07:47;;;;;;;;;;;;;;;;;;2210439;59;1219;-72
2022/05/08 17:10:24;;;;;;;;;;;;;;;;;;2210225;67;2565;-73
2022/05/08 17:13:00;;;;;;;;;;;;;;;;;;2209168;59;2123;-72
2022/05/08 17:15:39;;;;;;;;;;;;;;;;;;2209960;59;1343;-72
2022/05/08 17:18:13;;;;;;;;;;;;;;;;;;2209992;59;2035;-72
2022/05/08 17:20:46;;;;;;;;;;;;;;;;;;2210515;59;1659;-73
2022/05/08 17:23:19;;;;;;;;;;;;;;;;;;2209188;59;1709;-73
2022/05/08 17:25:53;;;;;;;;;;;;;;;;;;2210484;59;1937;-72
2022/05/08 17:31:20;;;;;;;;;;;;;;;;;;2209808;59;1226;-72
2022/05/08 17:33:54;;;;;;;;;;;;;;;;;;2210374;67;1083;-72
2022/05/08 17:36:27;;;;;;;;;;;;;;;;;;2210188;59;1232;-72
2022/05/08 17:39:00;;;;;;;;;;;;;;;;;;2209648;59;1300;-72
2022/05/08 17:41:33;;;;;;;;;;;;;;;;;;2209592;59;1703;-72
2022/05/08 17:44:09;;;;;;;;;;;;;;;;;;2209855;67;1184;-71
2022/05/08 17:46:42;;;;;;;;;;;;;;;;;;2209230;59;1932;-72
2022/05/08 17:49:16;;;;;;;;;;;;;;;;;;2210125;59;1360;-72
2022/05/08 17:51:49;;;;;;;;;;;;;;;;;;2209640;59;1178;-72
2022/05/08 17:54:22;;;;;;;;;;;;;;;;;;2209801;59;1747;-72
2022/05/08 17:56:55;;;;;;;;;;;;;;;;;;2210246;59;1131;-72
2022/05/08 17:59:31;;;;;;;;;;;;;;;;;;2209319;59;1735;-72
2022/05/08 18:07:42;;;;;;;;;;;;;;;;;;2210399;67;1927;-72
2022/05/08 18:10:15;;;;;;;;;;;;;;;;;;2210399;59;1137;-71
2022/05/08 18:12:48;;;;;;;;;;;;;;;;;;2208961;59;1270;-71
2022/05/08 18:15:24;;;;;;;;;;;;;;;;;;2210553;59;1351;-72
2022/05/08 18:17:57;;;;;;;;;;;;;;;;;;2210564;59;1226;-72
2022/05/08 18:20:31;;;;;;;;;;;;;;;;;;2209914;59;1436;-71
2022/05/08 18:23:04;;;;;;;;;;;;;;;;;;2209088;59;1704;-71
2022/05/08 18:25:37;;;;;;;;;;;;;;;;;;2209968;67;1935;-71
2022/05/08 18:28:11;;;;;;;;;;;;;;;;;;2209922;67;1289;-72
2022/05/08 18:30:47;;;;;;;;;;;;;;;;;;2209465;67;1105;-71
2022/05/08 18:33:20;;;;;;;;;;;;;;;;;;2208988;59;1247;-71
2022/05/08 18:35:54;;;;;;;;;;;;;;;;;;2209748;59;1337;-71
2022/05/08 18:38:27;;;;;;;;;;;;;;;;;;2206114;59;2068;-71
2022/05/08 18:41:00;;;;;;;;;;;;;;;;;;2209350;59;1846;-72
2022/05/08 18:43:33;;;;;;;;;;;;;;;;;;2206239;59;1875;-72
2022/05/08 18:46:09;;;;;;;;;;;;;;;;;;2209449;59;1932;-72
2022/05/08 18:48:43;;;;;;;;;;;;;;;;;;2208526;59;1734;-72